Time;durP1;ratioP1;P1;durP2;ratioP2;P2;SDS_P1;SDS_P2;PMS_P1;PMS_P2;Temp;Humidity;BMP_temperature;BMP_pressure;BME280_temperature;BME280_humidity;BME280_pressure;Samples;Min_cycle;Max_cycle;Signal;HPM_P1;HPM_P2
2021/07/27 00:00:05;;;;;;;;;;;;;;;16.06;85.50;99058.28;5033421;28;19924;-61
2021/07/27 00:02:30;;;;;;;;;;;;;;;16.03;85.47;99058.88;5033562;28;20439;-61
2021/07/27 00:04:56;;;;;;;;;;;;;;;15.95;85.92;99062.19;5033554;28;19921;-61
2021/07/27 00:07:21;;;;;;;;;;;;;;;15.90;86.22;99067.59;5033118;28;20008;-61
2021/07/27 00:09:46;;;;;;;;;;;;;;;15.83;86.52;99073.34;5033476;28;19960;-61
2021/07/27 00:12:11;;;;;;;;;;;;;;;15.89;86.21;99069.50;5033050;28;20279;-61
2021/07/27 00:14:37;;;;;;;;;;;;;;;15.83;86.42;99078.75;5032125;28;19924;-61
2021/07/27 00:17:02;;;;;;;;;;;;;;;15.74;86.67;99086.63;5031889;28;19940;-61
2021/07/27 00:19:27;;;;;;;;;;;;;;;15.70;86.88;99090.97;5033429;28;19939;-61
2021/07/27 00:21:52;;;;;;;;;;;;;;;15.63;87.37;99079.66;5049333;28;20302;-61
2021/07/27 00:24:18;;;;;;;;;;;;;;;15.60;87.87;99080.22;5013179;28;19924;-61
2021/07/27 00:26:43;;;;;;;;;;;;;;;15.61;87.37;99086.41;5027265;28;20280;-61
2021/07/27 00:29:10;;;;;;;;;;;;;;;15.58;87.59;99085.06;5033582;28;19921;-61
2021/07/27 00:31:35;;;;;;;;;;;;;;;15.63;87.40;99087.75;5032876;28;20044;-61
2021/07/27 00:34:00;;;;;;;;;;;;;;;15.57;87.58;99091.53;5033312;28;19971;-61
2021/07/27 00:36:26;;;;;;;;;;;;;;;15.62;87.54;99099.63;5032962;28;19921;-61
2021/07/27 00:38:51;;;;;;;;;;;;;;;15.59;87.59;99091.28;5033196;28;19913;-61
2021/07/27 00:41:16;;;;;;;;;;;;;;;15.59;88.03;99094.78;5032959;28;20418;-61
2021/07/27 00:43:41;;;;;;;;;;;;;;;15.66;87.98;99089.88;5032080;28;19917;-61
2021/07/27 00:46:07;;;;;;;;;;;;;;;15.73;87.72;99090.41;5057976;28;20438;-61
2021/07/27 00:48:32;;;;;;;;;;;;;;;15.77;87.77;99089.84;5015875;28;19918;-61
2021/07/27 00:50:57;;;;;;;;;;;;;;;15.79;87.63;99099.28;5017049;28;19918;-61
2021/07/27 00:53:22;;;;;;;;;;;;;;;15.88;87.52;99102.22;5016964;28;20268;-61
2021/07/27 00:55:48;;;;;;;;;;;;;;;15.87;87.54;99106.78;5015621;28;19925;-61
2021/07/27 00:58:14;;;;;;;;;;;;;;;15.87;87.51;99106.00;5017457;28;20352;-61
2021/07/27 01:00:39;;;;;;;;;;;;;;;15.94;87.86;99106.50;5016770;28;19921;-61
2021/07/27 01:03:04;;;;;;;;;;;;;;;15.96;87.62;99098.91;5017095;28;19925;-60
2021/07/27 01:05:29;;;;;;;;;;;;;;;16.00;87.58;99099.97;5016710;28;20351;-61
2021/07/27 01:07:55;;;;;;;;;;;;;;;16.02;87.27;99095.06;5017001;28;19941;-61
2021/07/27 01:10:21;;;;;;;;;;;;;;;16.10;87.04;99093.66;5015290;28;19926;-61
2021/07/27 01:12:46;;;;;;;;;;;;;;;16.08;86.96;99096.69;5017093;28;20499;-61
2021/07/27 01:15:11;;;;;;;;;;;;;;;16.14;87.00;99098.22;5016905;28;19921;-61
2021/07/27 01:17:37;;;;;;;;;;;;;;;16.15;86.78;99099.88;5036903;28;19963;-61
2021/07/27 01:43:44;;;;;;;;;;;;;;;16.16;87.06;99103.38;5036304;28;19940;-61
2021/07/27 01:46:10;;;;;;;;;;;;;;;16.18;86.86;99102.00;5035505;28;19967;-61
2021/07/27 01:48:35;;;;;;;;;;;;;;;16.16;87.31;99101.47;5036044;28;19924;-61
2021/07/27 01:51:03;;;;;;;;;;;;;;;16.18;86.96;99104.72;5035621;28;19997;-61
2021/07/27 01:53:35;;;;;;;;;;;;;;;16.25;86.95;99106.25;5035810;28;19917;-61
2021/07/27 01:56:00;;;;;;;;;;;;;;;16.23;87.17;99103.06;5035349;28;19933;-61
2021/07/27 01:58:26;;;;;;;;;;;;;;;16.26;86.94;99103.28;5035978;28;19986;-61
2021/07/27 02:00:51;;;;;;;;;;;;;;;16.21;87.16;99099.81;5035260;28;20012;-61
2021/07/27 02:03:16;;;;;;;;;;;;;;;16.19;87.23;99100.09;5035413;28;19925;-61
2021/07/27 02:05:45;;;;;;;;;;;;;;;16.16;87.61;99098.75;5035264;28;19943;-61
2021/07/27 02:08:11;;;;;;;;;;;;;;;16.20;87.42;99103.59;5035672;28;19924;-61
2021/07/27 02:10:37;;;;;;;;;;;;;;;16.15;87.43;99099.88;5035126;28;20008;-61
2021/07/27 02:13:11;;;;;;;;;;;;;;;16.13;87.87;99102.03;5016927;28;20004;-61
2021/07/27 02:15:43;;;;;;;;;;;;;;;16.12;87.60;99100.41;5020317;28;19929;-61
2021/07/27 02:18:08;;;;;;;;;;;;;;;16.13;87.75;99098.53;5035600;28;19917;-61
2021/07/27 02:20:34;;;;;;;;;;;;;;;16.14;87.60;99100.94;5030400;28;19921;-61
2021/07/27 02:22:59;;;;;;;;;;;;;;;16.16;87.49;99096.06;5015643;28;19925;-61
2021/07/27 02:25:24;;;;;;;;;;;;;;;16.19;87.32;99097.38;5018303;28;19921;-61
2021/07/27 02:27:49;;;;;;;;;;;;;;;16.21;87.24;99099.81;5035569;28;19917;-61
2021/07/27 02:30:15;;;;;;;;;;;;;;;16.20;87.22;99098.19;5032716;28;19917;-61
2021/07/27 02:32:40;;;;;;;;;;;;;;;16.21;87.32;99094.41;5015513;28;20257;-61
2021/07/27 02:35:06;;;;;;;;;;;;;;;16.18;87.35;99102.00;5015747;28;20218;-60
2021/07/27 02:37:31;;;;;;;;;;;;;;;16.17;87.35;99100.41;5035168;28;20419;-61
2021/07/27 02:39:57;;;;;;;;;;;;;;;16.15;87.17;99093.66;5034939;28;19925;-61
2021/07/27 02:42:22;;;;;;;;;;;;;;;16.15;87.33;99090.97;5015223;28;20441;-61
2021/07/27 02:44:47;;;;;;;;;;;;;;;16.06;87.79;99082.63;5015094;28;19925;-61
2021/07/27 02:47:13;;;;;;;;;;;;;;;15.99;87.86;99082.13;5032390;28;20322;-61
2021/07/27 02:49:38;;;;;;;;;;;;;;;15.91;87.94;99077.34;5034812;28;20003;-61
2021/07/27 02:52:03;;;;;;;;;;;;;;;15.85;88.36;99090.09;5017590;28;19953;-61
2021/07/27 02:54:28;;;;;;;;;;;;;;;15.84;88.12;99090.34;5014908;28;19914;-61
2021/07/27 02:56:55;;;;;;;;;;;;;;;15.78;88.39;99089.59;5029918;28;19922;-61
2021/07/27 02:59:20;;;;;;;;;;;;;;;15.70;88.84;99085.56;5034648;28;19917;-61
2021/07/27 03:01:45;;;;;;;;;;;;;;;15.65;89.22;99084.75;5019892;28;19932;-61
2021/07/27 03:04:11;;;;;;;;;;;;;;;15.63;89.13;99085.03;5014598;28;20329;-61
2021/07/27 03:06:36;;;;;;;;;;;;;;;15.68;88.71;99087.72;5027382;28;19932;-61
2021/07/27 03:11:26;;;;;;;;;;;;;;;15.60;88.95;99092.88;5022373;28;19925;-61
2021/07/27 03:13:52;;;;;;;;;;;;;;;15.61;88.90;99091.81;5014794;28;19917;-61
2021/07/27 03:16:17;;;;;;;;;;;;;;;15.56;88.86;99084.53;5024890;28;19944;-61
2021/07/27 03:18:43;;;;;;;;;;;;;;;15.51;89.23;99093.47;5034434;28;19913;-61
2021/07/27 03:21:08;;;;;;;;;;;;;;;15.46;89.50;99101.59;5033948;28;19921;-61
2021/07/27 03:23:33;;;;;;;;;;;;;;;15.41;89.83;99100.81;5034260;28;19924;-61
2021/07/27 03:25:59;;;;;;;;;;;;;;;15.36;89.89;99104.34;5033963;28;19928;-61
2021/07/27 03:28:24;;;;;;;;;;;;;;;15.25;90.09;99114.41;5033966;28;19921;-61
2021/07/27 03:30:49;;;;;;;;;;;;;;;15.28;89.85;99108.44;5033700;28;20330;-61
2021/07/27 03:33:15;;;;;;;;;;;;;;;15.20;89.94;99109.03;5034350;28;19924;-61
2021/07/27 03:35:40;;;;;;;;;;;;;;;15.18;89.96;99105.78;5033697;28;19928;-61
2021/07/27 03:38:06;;;;;;;;;;;;;;;15.16;90.53;99112.53;5033822;28;19920;-61
2021/07/27 03:40:34;;;;;;;;;;;;;;;15.16;90.16;99107.13;5033463;28;19921;-61
2021/07/27 03:43:00;;;;;;;;;;;;;;;15.21;89.96;99099.81;5032478;28;19925;-61
2021/07/27 03:45:25;;;;;;;;;;;;;;;15.04;90.59;99099.34;5033381;28;19917;-60
2021/07/27 03:47:50;;;;;;;;;;;;;;;15.05;90.58;99096.38;5033859;28;20011;-60
2021/07/27 03:50:15;;;;;;;;;;;;;;;15.14;90.34;99099.31;5033406;28;19959;-62
2021/07/27 03:52:41;;;;;;;;;;;;;;;15.12;90.27;99098.75;5032213;28;19917;-60
2021/07/27 03:55:06;;;;;;;;;;;;;;;15.15;90.10;99100.09;5033457;28;19924;-61
2021/07/27 03:57:31;;;;;;;;;;;;;;;15.24;89.98;99104.66;5033773;28;19913;-61
2021/07/27 03:59:57;;;;;;;;;;;;;;;15.30;89.25;99108.97;5033620;28;20283;-61
2021/07/27 04:02:25;;;;;;;;;;;;;;;15.34;89.19;99108.41;5032914;28;19932;-61
2021/07/27 04:04:50;;;;;;;;;;;;;;;15.38;88.77;99109.50;5033518;28;19963;-61
2021/07/27 04:07:16;;;;;;;;;;;;;;;15.48;88.53;99098.63;5033068;28;19921;-61
2021/07/27 04:09:41;;;;;;;;;;;;;;;15.56;88.24;99114.25;5033711;28;19924;-61
2021/07/27 04:12:06;;;;;;;;;;;;;;;15.60;88.17;99107.22;5022161;28;19925;-61
2021/07/27 04:14:33;;;;;;;;;;;;;;;15.98;86.63;99121.06;5013657;28;20012;-61
2021/07/27 04:16:59;;;;;;;;;;;;;;;16.70;83.04;99112.34;5029478;28;20363;-61
2021/07/27 04:19:24;;;;;;;;;;;;;;;17.20;81.35;99112.97;5032944;28;19978;-61
2021/07/27 04:21:49;;;;;;;;;;;;;;;17.79;77.73;99110.84;5018041;28;20296;-60
2021/07/27 04:24:17;;;;;;;;;;;;;;;17.80;77.20;99116.00;5013458;28;19961;-61
2021/07/27 04:26:42;;;;;;;;;;;;;;;18.17;76.68;99114.41;5026961;28;20019;-61
2021/07/27 04:29:07;;;;;;;;;;;;;;;18.02;76.15;99117.31;5033221;28;20328;-61
2021/07/27 04:31:32;;;;;;;;;;;;;;;18.24;75.13;99108.56;5020270;28;19928;-61
2021/07/27 04:33:58;;;;;;;;;;;;;;;18.65;73.84;99116.03;5013512;28;19925;-61
2021/07/27 04:36:23;;;;;;;;;;;;;;;18.47;74.48;99121.22;5024208;28;20319;-61
2021/07/27 04:38:48;;;;;;;;;;;;;;;18.64;73.84;99125.28;5031694;28;19917;-61
2021/07/27 04:41:13;;;;;;;;;;;;;;;19.33;70.94;99123.47;5022755;28;19935;-61
2021/07/27 04:43:39;;;;;;;;;;;;;;;18.61;72.60;99126.69;5013280;28;19923;-62
2021/07/27 04:46:04;;;;;;;;;;;;;;;19.67;69.81;99119.53;5021539;28;19956;-61
2021/07/27 04:48:30;;;;;;;;;;;;;;;20.50;66.29;99121.16;5033014;28;19920;-61
2021/07/27 04:50:55;;;;;;;;;;;;;;;20.67;66.10;99116.66;5025112;28;19922;-61
2021/07/27 04:53:24;;;;;;;;;;;;;;;20.85;65.39;99120.25;5013339;28;20366;-61
2021/07/27 04:55:49;;;;;;;;;;;;;;;19.33;69.49;99114.50;5019047;28;20318;-61
2021/07/27 04:58:15;;;;;;;;;;;;;;;18.97;71.09;99115.22;5032858;28;19924;-61
2021/07/27 05:00:40;;;;;;;;;;;;;;;18.40;73.54;99115.38;5025786;28;19921;-61
2021/07/27 05:03:05;;;;;;;;;;;;;;;18.12;74.73;99122.56;5013049;28;19922;-61
2021/07/27 05:05:30;;;;;;;;;;;;;;;18.55;73.20;99119.75;5012714;28;20068;-61
2021/07/27 05:07:57;;;;;;;;;;;;;;;18.65;72.66;99122.28;5013334;28;20260;-61
2021/07/27 05:10:23;;;;;;;;;;;;;;;17.86;75.79;99120.25;5015597;28;19921;-61
2021/07/27 05:12:48;;;;;;;;;;;;;;;19.14;71.23;99123.56;5032996;28;19929;-61
2021/07/27 05:15:13;;;;;;;;;;;;;;;20.33;67.01;99125.34;5032968;28;19917;-62
2021/07/27 05:17:39;;;;;;;;;;;;;;;20.32;65.92;99123.75;5033470;28;19917;-61
2021/07/27 05:20:05;;;;;;;;;;;;;;;21.35;62.27;99126.53;5032212;28;20379;-61
2021/07/27 05:22:30;;;;;;;;;;;;;;;18.70;71.48;99114.03;5032742;28;20008;-61
2021/07/27 05:24:58;;;;;;;;;;;;;;;18.22;73.75;99110.78;5033081;28;20014;-61
2021/07/27 05:27:24;;;;;;;;;;;;;;;17.98;75.59;99108.16;5032668;28;19927;-61
2021/07/27 05:29:49;;;;;;;;;;;;;;;17.63;76.32;99123.81;5033318;28;19946;-61
2021/07/27 05:32:15;;;;;;;;;;;;;;;17.64;77.04;99109.16;5035505;28;19921;-62
2021/07/27 05:34:40;;;;;;;;;;;;;;;19.25;70.73;99107.06;5036530;28;19917;-61
2021/07/27 05:37:05;;;;;;;;;;;;;;;21.15;63.63;99114.31;5036177;28;19975;-61
2021/07/27 05:39:30;;;;;;;;;;;;;;;21.16;63.12;99115.91;5036373;28;19912;-61
2021/07/27 05:41:56;;;;;;;;;;;;;;;22.90;57.36;99127.69;5035932;28;19952;-61
2021/07/27 05:44:25;;;;;;;;;;;;;;;23.13;56.90;99138.41;5036580;28;20386;-61
2021/07/27 05:46:50;;;;;;;;;;;;;;;23.11;56.86;99140.66;5035702;28;19921;-62
2021/07/27 05:49:15;;;;;;;;;;;;;;;23.03;56.62;99128.63;5034837;28;20287;-62
2021/07/27 05:51:41;;;;;;;;;;;;;;;22.36;58.53;99135.50;5034487;28;19925;-61
2021/07/27 05:54:06;;;;;;;;;;;;;;;22.27;58.61;99124.63;5036292;28;20035;-62
2021/07/27 05:56:31;;;;;;;;;;;;;;;22.49;58.00;99122.81;5035893;28;20383;-61
2021/07/27 05:58:57;;;;;;;;;;;;;;;24.06;53.71;99120.97;5036217;28;19921;-61
2021/07/27 06:01:22;;;;;;;;;;;;;;;24.51;51.83;99111.22;5035899;28;19921;-62
2021/07/27 06:03:47;;;;;;;;;;;;;;;25.52;49.85;99112.63;5034711;28;19921;-61
2021/07/27 06:06:12;;;;;;;;;;;;;;;24.81;50.88;99105.59;5035742;28;19921;-61
2021/07/27 06:08:38;;;;;;;;;;;;;;;24.51;51.84;99103.84;5035231;28;19957;-61
2021/07/27 06:11:04;;;;;;;;;;;;;;;24.10;52.66;99102.72;5034366;28;19921;-60
2021/07/27 06:13:30;;;;;;;;;;;;;;;21.31;61.33;99102.63;5035910;28;19917;-61
2021/07/27 06:15:55;;;;;;;;;;;;;;;20.83;63.60;99092.53;5035515;28;19925;-61
2021/07/27 06:18:20;;;;;;;;;;;;;;;20.58;64.49;99098.66;5035973;28;19925;-61
2021/07/27 06:20:46;;;;;;;;;;;;;;;20.22;66.10;99097.59;5035249;28;19925;-61
2021/07/27 06:23:11;;;;;;;;;;;;;;;19.84;67.24;99097.13;5035817;28;20371;-61
2021/07/27 06:25:37;;;;;;;;;;;;;;;19.92;67.47;99093.69;5035305;28;19925;-61
2021/07/27 06:28:11;;;;;;;;;;;;;;;19.73;67.94;99095.75;5035991;28;19986;-61
2021/07/27 06:30:36;;;;;;;;;;;;;;;19.79;67.85;99094.50;5035532;28;20437;-61
2021/07/27 06:33:01;;;;;;;;;;;;;;;19.82;67.55;99088.50;5035430;28;19917;-61
2021/07/27 06:35:27;;;;;;;;;;;;;;;19.40;69.25;99082.31;5035218;28;20389;-61
2021/07/27 06:37:54;;;;;;;;;;;;;;;19.71;68.42;99087.09;5035342;28;19917;-61
2021/07/27 06:40:20;;;;;;;;;;;;;;;19.74;68.28;99089.19;5034532;28;19917;-61
2021/07/27 06:42:45;;;;;;;;;;;;;;;20.17;67.33;99086.03;5034284;28;19917;-62
2021/07/27 06:45:11;;;;;;;;;;;;;;;19.85;68.54;99093.31;5034855;28;19917;-62
2021/07/27 06:47:37;;;;;;;;;;;;;;;19.13;70.83;99104.84;5034944;28;19921;-62
2021/07/27 06:50:02;;;;;;;;;;;;;;;18.96;71.26;99110.88;5034782;28;19924;-61
2021/07/27 06:52:27;;;;;;;;;;;;;;;18.95;71.12;99104.66;5035309;28;19921;-61
2021/07/27 06:54:53;;;;;;;;;;;;;;;18.49;73.46;99112.78;5034562;28;19917;-61
2021/07/27 06:57:18;;;;;;;;;;;;;;;18.80;72.68;99123.94;5034683;28;19945;-61
2021/07/27 06:59:43;;;;;;;;;;;;;;;19.64;70.47;99116.56;5035134;28;19917;-61
2021/07/27 07:02:08;;;;;;;;;;;;;;;19.33;71.03;99106.34;5034324;28;20353;-62
2021/07/27 07:04:34;;;;;;;;;;;;;;;19.69;69.27;99114.56;5034933;28;19967;-61
2021/07/27 07:06:59;;;;;;;;;;;;;;;19.84;69.22;99113.44;5034372;28;20275;-61
2021/07/27 07:09:24;;;;;;;;;;;;;;;19.94;69.22;99107.75;5034678;28;19917;-61
2021/07/27 07:11:50;;;;;;;;;;;;;;;19.84;69.54;99124.31;5034206;28;20004;-61
2021/07/27 07:14:15;;;;;;;;;;;;;;;18.67;73.23;99122.78;5034799;28;20011;-61
2021/07/27 07:16:40;;;;;;;;;;;;;;;19.41;71.31;99121.94;5034228;28;19921;-61
2021/07/27 07:19:05;;;;;;;;;;;;;;;19.06;71.80;99110.69;5033269;28;19913;-61
2021/07/27 07:21:31;;;;;;;;;;;;;;;19.56;69.30;99116.19;5034208;28;19921;-62
2021/07/27 07:23:56;;;;;;;;;;;;;;;19.86;69.29;99124.81;5034802;28;20351;-62
2021/07/27 07:26:21;;;;;;;;;;;;;;;19.31;70.74;99122.97;5034404;28;19929;-61
2021/07/27 07:28:46;;;;;;;;;;;;;;;20.14;68.64;99141.06;5034405;28;19921;-61
2021/07/27 07:31:16;;;;;;;;;;;;;;;20.79;65.95;99131.59;5034078;28;19918;-61
2021/07/27 07:33:41;;;;;;;;;;;;;;;20.70;66.43;99128.84;5034382;28;19917;-61
2021/07/27 07:36:13;;;;;;;;;;;;;;;21.15;64.14;99133.38;5034082;28;20371;-61
2021/07/27 07:38:38;;;;;;;;;;;;;;;21.09;64.34;99136.25;5034359;28;20000;-61
2021/07/27 07:41:07;;;;;;;;;;;;;;;20.07;67.83;99132.50;5033866;28;20367;-61
2021/07/27 07:43:32;;;;;;;;;;;;;;;20.29;67.10;99137.97;5034397;28;20083;-62
2021/07/27 07:45:57;;;;;;;;;;;;;;;21.85;62.65;99131.66;5033727;28;20431;-61
2021/07/27 07:48:23;;;;;;;;;;;;;;;20.34;66.37;99126.94;5034094;28;19917;-61
2021/07/27 07:50:48;;;;;;;;;;;;;;;19.93;67.32;99122.47;5033866;28;20008;-61
2021/07/27 07:53:13;;;;;;;;;;;;;;;21.08;64.83;99133.81;5034108;28;19924;-62
2021/07/27 07:55:38;;;;;;;;;;;;;;;21.89;61.46;99138.06;5033806;28;19921;-62
2021/07/27 07:58:04;;;;;;;;;;;;;;;21.49;62.65;99138.16;5034164;28;20367;-62
2021/07/27 08:00:29;;;;;;;;;;;;;;;19.80;67.98;99135.00;5033546;28;19933;-61
2021/07/27 08:02:54;;;;;;;;;;;;;;;21.75;62.92;99124.56;5034028;28;19921;-61
2021/07/27 08:05:20;;;;;;;;;;;;;;;22.37;60.05;99134.41;5033345;28;19964;-62
2021/07/27 08:07:45;;;;;;;;;;;;;;;23.82;55.80;99127.13;5033408;28;19940;-61
2021/07/27 08:10:11;;;;;;;;;;;;;;;21.96;61.77;99130.19;5033336;28;20363;-61
2021/07/27 08:12:36;;;;;;;;;;;;;;;22.23;60.28;99133.78;5032325;28;19924;-61
2021/07/27 08:15:02;;;;;;;;;;;;;;;22.32;59.67;99126.38;5033164;28;19960;-61
2021/07/27 08:17:27;;;;;;;;;;;;;;;24.52;54.40;99126.53;5033476;28;20014;-61
2021/07/27 08:19:52;;;;;;;;;;;;;;;25.70;51.22;99124.94;5033653;28;20063;-61
2021/07/27 08:22:17;;;;;;;;;;;;;;;25.13;51.50;99134.88;5031763;28;20295;-61
2021/07/27 08:24:43;;;;;;;;;;;;;;;24.95;51.66;99125.25;5033682;28;19971;-62
2021/07/27 08:27:08;;;;;;;;;;;;;;;26.01;48.34;99129.03;5032876;28;19964;-62
2021/07/27 08:29:36;;;;;;;;;;;;;;;25.44;50.54;99135.50;5033382;28;19924;-61
2021/07/27 08:32:08;;;;;;;;;;;;;;;23.55;54.49;99135.78;5032915;28;20390;-62
2021/07/27 08:34:36;;;;;;;;;;;;;;;24.02;54.91;99135.66;5033427;28;19931;-61
2021/07/27 08:37:01;;;;;;;;;;;;;;;23.81;54.68;99136.47;5032956;28;20331;-62
2021/07/27 08:39:26;;;;;;;;;;;;;;;24.97;51.12;99134.75;5033351;28;20028;-61
2021/07/27 08:41:51;;;;;;;;;;;;;;;22.33;59.40;99134.22;5049634;28;19921;-61
2021/07/27 08:44:17;;;;;;;;;;;;;;;23.25;56.51;99130.31;5012242;28;20409;-61
2021/07/27 08:46:42;;;;;;;;;;;;;;;23.43;56.73;99126.34;5027124;28;20294;-61
2021/07/27 08:49:08;;;;;;;;;;;;;;;22.37;59.88;99134.41;5031455;28;20409;-62
2021/07/27 08:51:33;;;;;;;;;;;;;;;23.62;56.51;99127.88;5032815;28;20039;-62
2021/07/27 08:53:58;;;;;;;;;;;;;;;21.87;60.93;99132.94;5032214;28;20329;-61
2021/07/27 08:56:23;;;;;;;;;;;;;;;21.17;63.52;99136.56;5032733;28;19921;-61
2021/07/27 08:58:49;;;;;;;;;;;;;;;20.53;65.10;99128.69;5033143;28;19914;-61
2021/07/27 09:01:21;;;;;;;;;;;;;;;21.24;63.17;99132.28;5032732;28;20031;-61
2021/07/27 09:03:48;;;;;;;;;;;;;;;22.09;59.70;99129.25;5032436;28;19932;-62
2021/07/27 09:06:13;;;;;;;;;;;;;;;21.64;61.34;99123.25;5033728;28;19921;-61
2021/07/27 09:08:38;;;;;;;;;;;;;;;23.46;55.55;99122.97;5036947;28;19924;-62
2021/07/27 09:11:04;;;;;;;;;;;;;;;25.11;50.54;99115.25;5036620;28;19917;-61
2021/07/27 09:13:33;;;;;;;;;;;;;;;25.69;49.61;99117.06;5036816;28;20405;-61
2021/07/27 09:15:58;;;;;;;;;;;;;;;26.12;47.82;99123.84;5035271;28;20387;-62
2021/07/27 09:18:23;;;;;;;;;;;;;;;26.57;47.01;99125.50;5036781;28;19920;-62
2021/07/27 09:20:49;;;;;;;;;;;;;;;24.45;50.56;99123.53;5036407;28;20012;-61
2021/07/27 09:23:21;;;;;;;;;;;;;;;22.93;55.68;99123.50;5036895;28;19913;-61
2021/07/27 09:25:50;;;;;;;;;;;;;;;22.85;56.38;99116.94;5036608;28;19929;-62
2021/07/27 09:28:16;;;;;;;;;;;;;;;25.64;49.16;99109.88;5036908;28;19924;-62
2021/07/27 09:30:42;;;;;;;;;;;;;;;25.14;50.98;99103.59;5036457;28;19917;-62
2021/07/27 09:33:08;;;;;;;;;;;;;;;24.19;52.11;99110.88;5036801;28;19921;-62
2021/07/27 09:35:33;;;;;;;;;;;;;;;24.02;53.31;99111.03;5034703;28;20016;-61
2021/07/27 09:38:15;;;;;;;;;;;;;;;23.67;54.12;99098.38;5036647;28;19924;-61
2021/07/27 09:40:56;;;;;;;;;;;;;;;22.72;56.43;99109.75;5035957;28;19971;-61
2021/07/27 09:43:25;;;;;;;;;;;;;;;23.43;54.93;99107.19;5036447;28;20391;-61
2021/07/27 09:45:51;;;;;;;;;;;;;;;22.90;56.76;99113.22;5034636;28;19928;-61
2021/07/27 09:48:16;;;;;;;;;;;;;;;23.65;53.76;99110.78;5036262;28;20367;-61
2021/07/27 09:50:46;;;;;;;;;;;;;;;23.68;53.69;99115.59;5034715;28;19921;-61
2021/07/27 09:53:11;;;;;;;;;;;;;;;24.74;51.24;99112.44;5036238;28;19913;-61
2021/07/27 09:55:36;;;;;;;;;;;;;;;23.15;54.32;99109.63;5036184;28;19948;-62
2021/07/27 09:58:02;;;;;;;;;;;;;;;23.14;55.00;99121.69;5036265;28;19913;-61
2021/07/27 10:00:27;;;;;;;;;;;;;;;25.50;49.65;99112.97;5035721;28;19922;-61
2021/07/27 10:02:52;;;;;;;;;;;;;;;25.77;48.69;99118.88;5034866;28;20342;-61
2021/07/27 10:05:24;;;;;;;;;;;;;;;24.50;51.35;99124.13;5035586;28;20386;-61
2021/07/27 10:07:54;;;;;;;;;;;;;;;24.85;50.70;99112.00;5035930;28;19952;-61
2021/07/27 10:10:21;;;;;;;;;;;;;;;24.49;51.00;99125.28;5035380;28;19971;-61
2021/07/27 10:12:46;;;;;;;;;;;;;;;25.05;50.50;99121.28;5036072;28;19924;-62
2021/07/27 10:15:12;;;;;;;;;;;;;;;25.13;49.38;99110.19;5050932;28;19917;-62
2021/07/27 10:17:50;;;;;;;;;;;;;;;26.03;47.17;99110.22;5034745;28;19921;-61
2021/07/27 10:20:24;;;;;;;;;;;;;;;25.43;47.66;99120.97;5035383;28;19924;-61
2021/07/27 10:22:50;;;;;;;;;;;;;;;24.92;49.09;99115.00;5035972;28;19940;-61
2021/07/27 10:25:16;;;;;;;;;;;;;;;24.77;49.80;99115.66;5034092;28;20375;-61
2021/07/27 10:27:48;;;;;;;;;;;;;;;24.69;49.82;99109.13;5035656;28;19925;-62
2021/07/27 10:30:13;;;;;;;;;;;;;;;24.77;49.99;99119.19;5035265;28;19964;-61
2021/07/27 10:32:41;;;;;;;;;;;;;;;24.47;50.84;99129.50;5035526;28;19910;-62
2021/07/27 10:35:28;;;;;;;;;;;;;;;24.18;51.74;99122.94;5035143;28;19924;-62
2021/07/27 10:38:14;;;;;;;;;;;;;;;25.16;49.95;99117.78;5035515;28;19913;-62
2021/07/27 10:40:39;;;;;;;;;;;;;;;23.96;51.94;99128.78;5034676;28;20275;-62
2021/07/27 10:43:07;;;;;;;;;;;;;;;24.54;51.14;99108.63;5067312;28;19971;-61
2021/07/27 10:45:32;;;;;;;;;;;;;;;25.41;47.75;99115.03;5034990;28;20059;-63
2021/07/27 10:47:57;;;;;;;;;;;;;;;25.20;48.92;99117.09;5035322;28;20011;-62
2021/07/27 10:50:27;;;;;;;;;;;;;;;25.98;46.45;99110.47;5034900;28;19922;-61
2021/07/27 10:53:07;;;;;;;;;;;;;;;25.83;46.33;99112.81;5035285;28;19917;-62
2021/07/27 10:55:33;;;;;;;;;;;;;;;25.02;46.88;99106.31;5033073;28;19968;-62
2021/07/27 10:57:58;;;;;;;;;;;;;;;26.01;44.91;99118.03;5035353;28;19959;-62
2021/07/27 11:00:30;;;;;;;;;;;;;;;26.34;44.53;99106.81;5033493;28;20268;-61
2021/07/27 11:02:56;;;;;;;;;;;;;;;26.71;43.87;99103.91;5034425;28;19921;-62
2021/07/27 11:05:27;;;;;;;;;;;;;;;26.62;44.90;99097.75;5034544;28;19921;-61
2021/07/27 11:07:52;;;;;;;;;;;;;;;25.36;46.16;99098.78;5034864;28;19967;-62
2021/07/27 11:10:21;;;;;;;;;;;;;;;26.13;44.80;99087.75;5034750;28;19921;-62
2021/07/27 11:12:46;;;;;;;;;;;;;;;27.05;43.24;99088.63;5035070;28;20276;-62
2021/07/27 11:15:14;;;;;;;;;;;;;;;26.06;44.47;99075.78;5034352;28;20390;-61
2021/07/27 11:17:43;;;;;;;;;;;;;;;26.13;43.41;99082.28;5034709;28;20127;-62
2021/07/27 11:20:09;;;;;;;;;;;;;;;25.02;46.54;99078.09;5034306;28;19917;-62
2021/07/27 11:22:34;;;;;;;;;;;;;;;25.48;45.65;99074.09;5034592;28;20315;-61
2021/07/27 11:24:59;;;;;;;;;;;;;;;25.49;44.97;99070.22;5034521;28;19921;-61
2021/07/27 11:27:28;;;;;;;;;;;;;;;26.37;44.12;99064.09;5033954;28;19928;-61
2021/07/27 11:29:54;;;;;;;;;;;;;;;25.80;45.36;99066.81;5034232;28;20027;-61
2021/07/27 11:32:20;;;;;;;;;;;;;;;24.90;48.28;99062.44;5033962;28;19975;-62
2021/07/27 11:34:45;;;;;;;;;;;;;;;26.01;45.50;99061.19;5033194;28;19967;-62
2021/07/27 11:37:10;;;;;;;;;;;;;;;24.85;46.35;99062.66;5032277;28;19925;-61
2021/07/27 11:39:39;;;;;;;;;;;;;;;24.18;48.56;99050.97;5034179;28;19923;-61
2021/07/27 11:42:04;;;;;;;;;;;;;;;25.51;45.93;99051.47;5033840;28;19921;-62
2021/07/27 11:44:29;;;;;;;;;;;;;;;25.77;45.62;99055.75;5034323;28;19987;-61
2021/07/27 11:46:55;;;;;;;;;;;;;;;25.23;46.30;99054.13;5033581;28;19921;-62
2021/07/27 11:49:20;;;;;;;;;;;;;;;25.74;44.98;99053.69;5034157;28;19917;-62
2021/07/27 11:51:45;;;;;;;;;;;;;;;25.06;46.20;99046.94;5033660;28;19925;-61
2021/07/27 11:54:11;;;;;;;;;;;;;;;25.35;45.83;99045.09;5033013;28;19917;-61
2021/07/27 11:56:46;;;;;;;;;;;;;;;24.97;46.62;99041.53;5033541;28;19964;-61
2021/07/27 11:59:11;;;;;;;;;;;;;;;25.13;46.65;99041.63;5034155;28;19917;-61
2021/07/27 12:01:40;;;;;;;;;;;;;;;25.85;45.07;99043.00;5033418;28;19948;-61
2021/07/27 12:04:06;;;;;;;;;;;;;;;25.63;45.27;99039.63;5033720;28;19964;-62
2021/07/27 12:06:31;;;;;;;;;;;;;;;25.53;46.64;99042.88;5033411;28;19972;-62
2021/07/27 12:09:00;;;;;;;;;;;;;;;25.03;47.00;99053.06;5032940;28;20670;-62
2021/07/27 12:11:25;;;;;;;;;;;;;;;25.79;46.33;99046.00;5033278;28;19925;-62
2021/07/27 12:13:51;;;;;;;;;;;;;;;25.72;46.35;99042.25;5034077;28;19917;-62
2021/07/27 12:16:16;;;;;;;;;;;;;;;25.76;45.52;99054.13;5033277;28;19996;-62
2021/07/27 12:18:41;;;;;;;;;;;;;;;25.42;46.31;99061.75;5033651;28;19917;-61
2021/07/27 12:21:06;;;;;;;;;;;;;;;24.38;47.77;99044.63;5033231;28;20350;-61
2021/07/27 12:23:32;;;;;;;;;;;;;;;24.25;49.32;99048.50;5034085;28;19924;-62
2021/07/27 12:25:58;;;;;;;;;;;;;;;24.46;49.01;99052.00;5033150;28;19929;-61
2021/07/27 12:28:23;;;;;;;;;;;;;;;24.64;49.32;99063.56;5033862;28;19931;-61
2021/07/27 12:30:48;;;;;;;;;;;;;;;24.37;51.25;99069.63;5033137;28;20283;-61
2021/07/27 12:33:15;;;;;;;;;;;;;;;24.31;51.12;99074.50;5033529;28;19917;-61
2021/07/27 12:35:40;;;;;;;;;;;;;;;22.61;54.92;99107.38;5033043;28;20008;-61
2021/07/27 12:38:06;;;;;;;;;;;;;;;21.84;57.77;99102.75;5032486;28;20339;-61
2021/07/27 12:40:31;;;;;;;;;;;;;;;20.98;61.83;99098.69;5032314;28;19921;-63
2021/07/27 12:42:57;;;;;;;;;;;;;;;20.61;64.18;99093.38;5033564;28;20008;-62
2021/07/27 12:45:22;;;;;;;;;;;;;;;20.29;66.84;99083.53;5033089;28;19921;-62
2021/07/27 12:47:47;;;;;;;;;;;;;;;20.42;66.06;99079.97;5033150;28;19920;-61
2021/07/27 12:50:12;;;;;;;;;;;;;;;20.65;66.99;99082.69;5032587;28;19921;-61
2021/07/27 12:52:38;;;;;;;;;;;;;;;20.88;69.03;99078.75;5033477;28;19917;-61
2021/07/27 12:55:03;;;;;;;;;;;;;;;20.80;65.58;99063.19;5032949;28;19924;-62
2021/07/27 12:57:28;;;;;;;;;;;;;;;20.74;64.79;99056.25;5032871;28;19921;-62
2021/07/27 12:59:54;;;;;;;;;;;;;;;20.95;62.96;99078.31;5033196;28;20318;-62
2021/07/27 13:02:22;;;;;;;;;;;;;;;20.76;62.18;99078.53;5032498;28;19932;-62
2021/07/27 13:04:47;;;;;;;;;;;;;;;20.48;61.32;99067.00;5033063;28;19986;-62
2021/07/27 13:07:13;;;;;;;;;;;;;;;20.65;60.98;99072.59;5032664;28;19925;-61